createdAt,value
2023-04-14T00:00:03.942Z,6.18
2023-04-14T00:02:31.244Z,7.70
2023-04-14T00:04:58.194Z,6.38
2023-04-14T00:07:25.341Z,7.07
2023-04-14T00:09:52.036Z,6.18
2023-04-14T00:12:19.043Z,5.28
2023-04-14T00:14:46.309Z,4.47
2023-04-14T00:17:13.155Z,5.72
2023-04-14T00:19:40.081Z,6.13
2023-04-14T00:22:06.935Z,5.90
2023-04-14T00:24:34.230Z,5.90
2023-04-14T00:27:01.292Z,5.50
2023-04-14T00:29:28.444Z,5.88
2023-04-14T00:31:55.650Z,6.20
2023-04-14T00:34:22.368Z,6.18
2023-04-14T00:36:49.087Z,6.80
2023-04-14T00:39:15.779Z,6.70
2023-04-14T00:41:43.712Z,6.43
2023-04-14T00:44:10.554Z,6.60
2023-04-14T00:46:37.818Z,5.97
2023-04-14T00:49:04.767Z,7.05
2023-04-14T00:51:32.816Z,7.15
2023-04-14T00:54:02.565Z,6.45
2023-04-14T00:56:32.206Z,7.45
2023-04-14T00:59:02.645Z,7.85
2023-04-14T01:01:30.413Z,7.95
2023-04-14T01:03:58.373Z,6.93
2023-04-14T01:06:27.223Z,8.05
2023-04-14T01:08:55.105Z,6.80
2023-04-14T01:11:52.392Z,7.05
2023-04-14T01:14:37.620Z,6.35
2023-04-14T01:17:19.686Z,6.80
2023-04-14T01:20:09.675Z,7.45
2023-04-14T01:22:40.552Z,6.60
2023-04-14T01:25:35.405Z,7.40
2023-04-14T01:31:43.879Z,7.10
2023-04-14T01:34:31.356Z,6.10
2023-04-14T01:37:08.790Z,8.20
2023-04-14T01:39:40.559Z,6.30
2023-04-14T01:42:13.312Z,7.13
2023-04-14T01:44:41.159Z,8.18
2023-04-14T01:47:10.794Z,8.20
2023-04-14T01:49:41.067Z,8.38
2023-04-14T01:52:10.595Z,7.15
2023-04-14T01:54:42.727Z,6.65
2023-04-14T01:57:12.792Z,7.80
2023-04-14T01:59:41.869Z,6.82
2023-04-14T02:02:11.695Z,6.78
2023-04-14T02:04:39.966Z,7.18
2023-04-14T02:07:10.313Z,7.70
2023-04-14T02:09:39.279Z,6.72
2023-04-14T02:12:08.078Z,6.90
2023-04-14T02:14:36.218Z,8.23
2023-04-14T02:17:04.737Z,8.43
2023-04-14T02:19:34.292Z,10.20
2023-04-14T02:22:02.749Z,8.32
2023-04-14T02:24:30.788Z,9.30
2023-04-14T02:27:13.691Z,8.90
2023-04-14T02:29:44.464Z,9.07
2023-04-14T02:32:19.952Z,8.50
2023-04-14T02:35:01.711Z,9.68
2023-04-14T02:37:34.526Z,9.13
2023-04-14T02:40:05.836Z,8.90
2023-04-14T02:42:37.630Z,8.95
2023-04-14T02:45:09.687Z,8.60
2023-04-14T02:47:41.713Z,8.75
2023-04-14T02:50:14.421Z,10.30
2023-04-14T02:52:43.724Z,9.68
2023-04-14T02:55:12.014Z,8.52
2023-04-14T02:57:39.845Z,9.02
2023-04-14T03:00:07.626Z,8.77
2023-04-14T03:02:36.484Z,8.30
2023-04-14T03:05:04.339Z,9.25
2023-04-14T03:07:32.625Z,8.30
2023-04-14T03:10:00.347Z,8.55
2023-04-14T03:12:29.627Z,7.80
2023-04-14T03:14:58.187Z,7.75
2023-04-14T03:17:26.131Z,8.10
2023-04-14T03:19:54.314Z,7.88
2023-04-14T03:22:22.193Z,8.95
2023-04-14T03:24:50.924Z,8.75
2023-04-14T03:27:22.784Z,9.90
2023-04-14T03:29:53.726Z,9.63
2023-04-14T03:32:23.553Z,9.02
2023-04-14T03:34:56.811Z,9.65
2023-04-14T03:37:27.215Z,9.00
2023-04-14T03:39:55.767Z,10.10
2023-04-14T03:42:26.093Z,8.50
2023-04-14T03:44:56.567Z,12.02
2023-04-14T03:47:29.044Z,9.05
2023-04-14T03:50:01.343Z,10.35
2023-04-14T03:52:33.514Z,11.65
2023-04-14T03:55:06.077Z,11.00
2023-04-14T03:57:34.383Z,11.13
2023-04-14T04:00:05.044Z,11.77
2023-04-14T04:02:32.864Z,10.73
2023-04-14T04:05:01.378Z,12.13
2023-04-14T04:07:31.088Z,10.35
2023-04-14T04:09:59.044Z,11.93
2023-04-14T04:12:27.864Z,11.25
2023-04-14T04:14:54.613Z,11.93
2023-04-14T04:17:25.004Z,13.70
2023-04-14T04:19:53.635Z,13.20
2023-04-14T04:22:22.013Z,14.98
2023-04-14T04:24:51.204Z,13.10
2023-04-14T04:27:27.731Z,15.13
2023-04-14T04:29:56.203Z,13.60
2023-04-14T04:32:24.355Z,14.15
2023-04-14T04:34:55.221Z,16.20
2023-04-14T04:37:22.911Z,14.70
2023-04-14T04:39:49.605Z,17.45
2023-04-14T04:42:16.612Z,16.67
2023-04-14T04:44:43.443Z,15.75
2023-04-14T04:47:12.021Z,16.90
2023-04-14T04:49:38.762Z,17.77
2023-04-14T04:52:06.119Z,16.63
2023-04-14T04:54:32.995Z,18.33
2023-04-14T04:56:59.931Z,17.23
2023-04-14T04:59:27.190Z,17.20
2023-04-14T05:01:54.023Z,16.38
2023-04-14T05:04:21.871Z,18.17
2023-04-14T05:06:48.638Z,18.38
2023-04-14T05:09:15.508Z,20.45
2023-04-14T05:11:43.018Z,19.58
2023-04-14T05:14:09.761Z,21.25
2023-04-14T05:16:37.036Z,21.10
2023-04-14T05:19:04.092Z,22.05
2023-04-14T05:21:31.249Z,24.52
2023-04-14T05:23:58.384Z,23.65
2023-04-14T05:26:48.650Z,22.15
2023-04-14T05:29:12.795Z,22.65
2023-04-14T05:31:39.947Z,22.10
2023-04-14T05:34:06.738Z,21.17
2023-04-14T05:36:33.523Z,23.67
2023-04-14T05:39:00.701Z,23.55
2023-04-14T05:41:28.969Z,21.40
2023-04-14T05:43:56.162Z,23.52
2023-04-14T05:46:23.343Z,22.45
2023-04-14T05:48:50.140Z,20.60
2023-04-14T05:51:17.241Z,22.35
2023-04-14T05:53:43.974Z,20.58
2023-04-14T05:56:12.032Z,23.20
2023-04-14T05:58:38.795Z,21.63
2023-04-14T06:01:06.740Z,21.20
2023-04-14T06:03:37.862Z,20.25
2023-04-14T06:06:06.894Z,19.73
2023-04-14T06:08:33.662Z,21.70
2023-04-14T06:11:00.881Z,20.10
2023-04-14T06:15:56.138Z,19.08
2023-04-14T06:18:23.087Z,20.90
2023-04-14T06:20:50.440Z,22.50
2023-04-14T06:23:17.521Z,22.48
2023-04-14T06:25:44.480Z,17.45
2023-04-14T06:28:11.323Z,19.42
2023-04-14T06:30:38.403Z,16.02
2023-04-14T06:33:05.815Z,19.20
2023-04-14T06:35:33.886Z,20.17
2023-04-14T06:38:04.451Z,18.60
2023-04-14T06:40:31.270Z,19.38
2023-04-14T06:42:58.755Z,19.40
2023-04-14T06:45:26.301Z,18.45
2023-04-14T06:47:53.207Z,18.42
2023-04-14T06:50:20.381Z,19.50
2023-04-14T06:52:47.459Z,18.58
2023-04-14T06:55:14.264Z,17.13
2023-04-14T06:57:41.037Z,16.38
2023-04-14T07:00:11.720Z,17.58
2023-04-14T07:02:38.567Z,16.98
2023-04-14T07:05:06.390Z,17.30
2023-04-14T07:07:40.111Z,16.70
2023-04-14T07:10:07.697Z,16.85
2023-04-14T07:12:35.765Z,16.98
2023-04-14T07:15:02.898Z,14.98
2023-04-14T07:17:30.281Z,14.57
2023-04-14T07:19:57.469Z,15.93
2023-04-14T07:22:24.168Z,16.40
2023-04-14T07:24:52.056Z,17.25
2023-04-14T07:27:19.162Z,16.75
2023-04-14T07:29:46.007Z,15.63
2023-04-14T07:32:13.679Z,17.20
2023-04-14T07:34:43.719Z,17.33
2023-04-14T07:37:11.555Z,15.02
2023-04-14T07:39:38.833Z,17.20
2023-04-14T07:42:05.705Z,16.55
2023-04-14T07:44:33.303Z,14.90
2023-04-14T07:47:00.165Z,18.98
2023-04-14T07:49:27.062Z,15.65
2023-04-14T07:51:54.156Z,18.20
2023-04-14T07:54:20.979Z,19.95
2023-04-14T07:56:49.136Z,18.02
2023-04-14T07:59:16.519Z,17.33
2023-04-14T08:01:43.364Z,16.90
2023-04-14T08:04:13.580Z,17.20
2023-04-14T08:06:40.437Z,15.43
2023-04-14T08:09:07.614Z,16.77
2023-04-14T08:11:34.336Z,16.55
2023-04-14T08:14:01.172Z,18.75
2023-04-14T08:16:29.343Z,17.83
2023-04-14T08:18:58.067Z,17.23
2023-04-14T08:21:25.346Z,16.38
2023-04-14T08:23:53.076Z,16.30
2023-04-14T08:26:19.831Z,17.67
2023-04-14T08:28:49.500Z,14.35
2023-04-14T08:31:16.868Z,17.80
2023-04-14T08:33:43.642Z,15.93
2023-04-14T08:36:10.858Z,16.00
2023-04-14T08:38:37.560Z,15.07
2023-04-14T08:41:07.348Z,16.95
2023-04-14T08:43:34.784Z,17.95
2023-04-14T08:46:02.386Z,18.17
2023-04-14T08:48:31.572Z,16.42
2023-04-14T08:51:13.882Z,17.92
2023-04-14T08:53:44.253Z,18.85
2023-04-14T08:56:13.952Z,18.45
2023-04-14T08:58:41.991Z,20.95
2023-04-14T09:01:09.972Z,18.10
2023-04-14T09:03:38.344Z,18.63
2023-04-14T09:06:06.598Z,17.50
2023-04-14T09:08:34.962Z,16.90
2023-04-14T09:11:02.872Z,18.42
2023-04-14T09:13:31.367Z,19.70
2023-04-14T09:16:00.487Z,16.88
2023-04-14T09:18:28.857Z,18.10
2023-04-14T09:21:31.116Z,19.25
2023-04-14T09:23:46.775Z,19.15
2023-04-14T09:26:14.075Z,20.00
2023-04-14T09:28:41.383Z,21.27
2023-04-14T09:31:10.361Z,21.52
2023-04-14T09:33:55.322Z,19.52
2023-04-14T09:36:24.397Z,22.70
2023-04-14T09:38:52.120Z,21.35
2023-04-14T09:41:23.067Z,21.25
2023-04-14T09:43:50.872Z,20.98
2023-04-14T09:46:18.026Z,22.48
2023-04-14T09:48:52.811Z,21.58
2023-04-14T09:51:30.344Z,23.52
2023-04-14T09:54:03.383Z,23.65
2023-04-14T09:56:31.040Z,24.70
2023-04-14T09:59:02.846Z,24.10
2023-04-14T10:01:32.676Z,24.25
2023-04-14T10:04:02.025Z,25.20
2023-04-14T10:06:29.248Z,21.83
2023-04-14T10:08:57.506Z,22.95
2023-04-14T10:11:35.583Z,24.15
2023-04-14T10:14:04.975Z,24.85
2023-04-14T10:16:33.125Z,25.70
2023-04-14T10:19:00.493Z,24.90
2023-04-14T10:21:28.642Z,23.88
2023-04-14T10:23:57.767Z,26.58
2023-04-14T10:26:25.387Z,27.98
2023-04-14T10:28:54.909Z,27.73
2023-04-14T10:31:29.250Z,26.25
2023-04-14T10:33:56.708Z,29.77
2023-04-14T10:36:32.382Z,28.38
2023-04-14T10:39:02.732Z,27.65
2023-04-14T10:41:50.141Z,25.90
2023-04-14T10:44:34.692Z,27.20
2023-04-14T10:47:05.627Z,26.80
2023-04-14T10:49:35.545Z,29.67
2023-04-14T10:52:04.745Z,28.48
2023-04-14T10:54:53.815Z,30.85
2023-04-14T10:57:30.769Z,28.63
2023-04-14T10:59:59.425Z,30.63
2023-04-14T11:02:35.256Z,29.95
2023-04-14T11:05:07.812Z,31.85
2023-04-14T11:07:40.305Z,30.85
2023-04-14T11:10:19.582Z,29.38
2023-04-14T11:12:48.811Z,28.35
2023-04-14T11:15:16.991Z,33.47
2023-04-14T11:17:44.961Z,30.40
2023-04-14T11:20:24.504Z,31.90
2023-04-14T11:22:53.221Z,29.45
2023-04-14T11:25:24.514Z,32.00
2023-04-14T11:27:52.234Z,33.40
2023-04-14T11:30:20.383Z,31.77
2023-04-14T11:32:49.244Z,30.85
2023-04-14T11:35:16.614Z,31.33
2023-04-14T11:37:44.304Z,31.58
2023-04-14T11:40:13.382Z,30.67
2023-04-14T11:42:45.768Z,31.55
2023-04-14T11:45:15.417Z,31.25
2023-04-14T11:47:58.328Z,30.77
2023-04-14T11:50:26.229Z,30.23
2023-04-14T11:52:55.728Z,34.15
2023-04-14T11:55:26.542Z,33.22
2023-04-14T11:57:54.891Z,30.42
2023-04-14T12:00:21.853Z,31.25
2023-04-14T12:02:49.841Z,30.35
2023-04-14T12:05:22.307Z,29.17
2023-04-14T12:07:50.215Z,31.98
2023-04-14T12:10:17.826Z,29.50
2023-04-14T12:12:44.933Z,30.23
2023-04-14T12:15:13.468Z,32.28
2023-04-14T12:17:41.891Z,33.22
2023-04-14T12:20:15.917Z,31.67
2023-04-14T12:22:43.105Z,31.73
2023-04-14T12:25:13.031Z,30.88
2023-04-14T12:27:40.189Z,30.83
2023-04-14T12:30:09.593Z,32.43
2023-04-14T12:32:42.593Z,31.40
2023-04-14T12:35:10.007Z,30.50
2023-04-14T12:37:38.829Z,31.17
2023-04-14T12:40:06.983Z,31.80
2023-04-14T12:42:45.638Z,32.33
2023-04-14T12:45:12.808Z,32.30
2023-04-14T12:47:39.793Z,33.97
2023-04-14T12:50:30.518Z,30.60
2023-04-14T12:52:57.599Z,35.17
2023-04-14T12:55:30.176Z,31.58
2023-04-14T12:57:58.929Z,34.22
2023-04-14T13:00:27.740Z,37.15
2023-04-14T13:03:00.968Z,35.40
2023-04-14T13:05:27.748Z,34.92
2023-04-14T13:07:55.145Z,37.47
2023-04-14T13:10:22.320Z,37.25
2023-04-14T13:12:49.158Z,38.50
2023-04-14T13:16:11.993Z,36.20
2023-04-14T13:18:02.582Z,34.90
2023-04-14T13:20:30.994Z,37.05
2023-04-14T13:22:58.111Z,35.38
2023-04-14T13:25:25.213Z,37.65
2023-04-14T13:27:52.310Z,34.58
2023-04-14T13:30:19.690Z,36.47
2023-04-14T13:32:47.036Z,34.78
2023-04-14T13:35:13.854Z,37.85
2023-04-14T13:37:48.148Z,36.80
2023-04-14T13:40:15.020Z,34.15
2023-04-14T13:42:42.104Z,35.10
2023-04-14T13:45:09.465Z,33.85
2023-04-14T13:47:36.709Z,32.88
2023-04-14T13:50:03.619Z,37.50
2023-04-14T13:52:30.644Z,35.13
2023-04-14T13:54:57.773Z,36.20
2023-04-14T13:57:24.543Z,33.33
2023-04-14T13:59:51.565Z,36.42
2023-04-14T14:02:18.424Z,34.63
2023-04-14T14:04:45.427Z,34.58
2023-04-14T14:07:12.171Z,31.83
2023-04-14T14:09:38.890Z,33.58
2023-04-14T14:12:05.802Z,33.20
2023-04-14T14:14:33.056Z,35.08
2023-04-14T14:17:01.048Z,36.67
2023-04-14T14:19:28.195Z,34.35
2023-04-14T14:21:54.905Z,31.23
2023-04-14T14:24:21.666Z,32.13
2023-04-14T14:26:48.686Z,33.65
2023-04-14T14:29:15.540Z,30.48
2023-04-14T14:31:42.704Z,32.25
2023-04-14T14:34:10.439Z,33.25
2023-04-14T14:36:37.671Z,33.63
2023-04-14T14:39:04.498Z,31.25
2023-04-14T14:41:31.764Z,33.03
2023-04-14T14:43:59.987Z,36.78
2023-04-14T14:46:28.146Z,32.53
2023-04-14T14:48:56.299Z,32.25
2023-04-14T14:51:24.128Z,32.83
2023-04-14T14:53:52.179Z,32.75
2023-04-14T14:56:21.170Z,31.40
2023-04-14T14:58:48.078Z,32.88
2023-04-14T15:01:14.824Z,35.08
2023-04-14T15:03:41.790Z,33.45
2023-04-14T15:06:08.653Z,31.10
2023-04-14T15:08:35.560Z,35.75
2023-04-14T15:11:04.961Z,34.47
2023-04-14T15:13:32.741Z,34.95
2023-04-14T15:15:59.874Z,34.10
2023-04-14T15:18:26.590Z,35.40
2023-04-14T15:20:54.388Z,32.42
2023-04-14T15:23:21.307Z,32.92
2023-04-14T15:25:48.022Z,34.50
2023-04-14T15:28:15.125Z,35.00
2023-04-14T15:30:41.934Z,36.78
2023-04-14T15:33:08.610Z,35.65
2023-04-14T15:35:39.369Z,37.15
2023-04-14T15:38:07.061Z,34.70
2023-04-14T15:40:33.803Z,33.10
2023-04-14T15:43:01.615Z,34.53
2023-04-14T15:45:28.298Z,36.70
2023-04-14T15:47:55.079Z,39.58
2023-04-14T15:50:21.781Z,34.22
2023-04-14T15:52:49.628Z,39.10
2023-04-14T15:55:16.496Z,42.00
2023-04-14T15:57:43.267Z,41.92
2023-04-14T16:00:10.581Z,38.08
2023-04-14T16:02:37.514Z,39.83
2023-04-14T16:05:05.527Z,38.42
2023-04-14T16:07:35.767Z,42.45
2023-04-14T16:10:04.416Z,39.58
2023-04-14T16:12:33.703Z,40.50
2023-04-14T16:15:00.447Z,40.38
2023-04-14T16:17:27.210Z,41.70
2023-04-14T16:19:54.305Z,38.47
2023-04-14T16:22:21.017Z,38.47
2023-04-14T16:24:48.170Z,39.42
2023-04-14T16:27:15.020Z,38.42
2023-04-14T16:29:41.749Z,42.08
2023-04-14T16:32:09.072Z,37.45
2023-04-14T16:34:35.740Z,41.78
2023-04-14T16:37:02.472Z,39.28
2023-04-14T16:39:30.578Z,42.28
2023-04-14T16:41:58.717Z,40.22
2023-04-14T16:44:25.814Z,43.58
2023-04-14T16:46:53.217Z,41.30
2023-04-14T16:49:20.065Z,41.20
2023-04-14T16:51:46.773Z,46.78
2023-04-14T16:54:13.474Z,44.53
2023-04-14T16:56:40.185Z,46.78
2023-04-14T16:59:07.579Z,43.40
2023-04-14T17:01:34.417Z,45.30
2023-04-14T17:04:03.960Z,47.60
2023-04-14T17:06:31.216Z,46.65
2023-04-14T17:08:58.276Z,45.95
2023-04-14T17:11:25.373Z,46.72
2023-04-14T17:13:53.386Z,46.70
2023-04-14T17:16:21.745Z,45.00
2023-04-14T17:18:49.425Z,46.13
2023-04-14T17:21:16.131Z,48.67
2023-04-14T17:23:43.342Z,48.95
2023-04-14T17:26:10.683Z,48.88
2023-04-14T17:28:38.642Z,44.42
2023-04-14T17:31:14.994Z,48.55
2023-04-14T17:33:43.092Z,46.03
2023-04-14T17:36:12.704Z,50.22
2023-04-14T17:38:40.518Z,46.10
2023-04-14T17:41:09.521Z,47.10
2023-04-14T17:43:39.076Z,47.20
2023-04-14T17:46:06.482Z,45.03
2023-04-14T17:48:34.105Z,44.70
2023-04-14T17:51:05.507Z,48.83
2023-04-14T17:53:32.310Z,45.88
2023-04-14T17:55:59.663Z,48.10
2023-04-14T17:58:27.103Z,50.35
2023-04-14T18:00:53.903Z,51.28
2023-04-14T18:03:21.488Z,50.45
2023-04-14T18:05:48.510Z,51.20
2023-04-14T18:08:16.084Z,51.05
2023-04-14T18:10:45.572Z,50.47
2023-04-14T18:13:13.463Z,50.15
2023-04-14T18:15:41.782Z,50.78
2023-04-14T18:18:09.086Z,52.75
2023-04-14T18:20:36.883Z,54.10
2023-04-14T18:23:03.680Z,51.17
2023-04-14T18:28:04.213Z,50.05
2023-04-14T18:30:41.439Z,50.08
2023-04-14T18:33:22.267Z,54.45
2023-04-14T18:35:58.650Z,53.38
2023-04-14T18:38:26.208Z,49.75
2023-04-14T18:40:53.597Z,50.85
2023-04-14T18:43:20.778Z,49.72
2023-04-14T18:45:49.521Z,50.85
2023-04-14T18:48:17.084Z,51.63
2023-04-14T18:50:45.321Z,51.95
2023-04-14T18:53:12.587Z,50.35
2023-04-14T18:55:45.761Z,50.40
2023-04-14T18:58:13.390Z,52.30
2023-04-14T19:00:40.755Z,50.53
2023-04-14T19:03:08.712Z,49.20
2023-04-14T19:05:37.347Z,49.83
2023-04-14T19:08:04.826Z,52.88
2023-04-14T19:10:32.234Z,53.35
2023-04-14T19:12:59.053Z,53.35
2023-04-14T19:15:27.620Z,55.13
2023-04-14T19:17:55.689Z,52.65
2023-04-14T19:20:23.245Z,55.83
2023-04-14T19:22:50.529Z,49.70
2023-04-14T19:25:17.724Z,52.67
2023-04-14T19:27:44.994Z,53.30
2023-04-14T19:30:12.873Z,53.53
2023-04-14T19:32:41.136Z,51.90
2023-04-14T19:35:08.829Z,52.88
2023-04-14T19:37:35.934Z,53.90
2023-04-14T19:40:06.837Z,53.88
2023-04-14T19:42:34.319Z,54.28
2023-04-14T19:45:01.226Z,54.08
2023-04-14T19:47:28.139Z,56.53
2023-04-14T19:49:55.318Z,50.70
2023-04-14T19:52:22.791Z,54.35
2023-04-14T19:54:50.106Z,53.33
2023-04-14T19:57:17.056Z,55.83
2023-04-14T19:59:44.330Z,51.15
2023-04-14T20:02:14.217Z,54.15
2023-04-14T20:04:41.104Z,54.83
2023-04-14T20:07:08.504Z,53.25
2023-04-14T20:09:35.669Z,50.58
2023-04-14T20:12:02.534Z,50.17
2023-04-14T20:14:29.954Z,54.85
2023-04-14T20:16:57.173Z,51.03
2023-04-14T20:19:24.533Z,49.95
2023-04-14T20:21:51.439Z,50.80
2023-04-14T20:24:18.622Z,49.17
2023-04-14T20:26:46.232Z,51.60
2023-04-14T20:29:13.362Z,54.05
2023-04-14T20:31:41.645Z,53.10
2023-04-14T20:34:09.361Z,52.30
2023-04-14T20:36:37.567Z,53.67
2023-04-14T20:39:06.450Z,52.53
2023-04-14T20:41:33.966Z,51.60
2023-04-14T20:44:01.384Z,51.97
2023-04-14T20:46:29.146Z,47.65
2023-04-14T20:48:56.694Z,52.20
2023-04-14T20:51:24.015Z,54.70
2023-04-14T20:53:56.252Z,56.00
2023-04-14T20:56:25.138Z,49.75
2023-04-14T20:58:51.994Z,54.85
2023-04-14T21:01:25.653Z,53.17
2023-04-14T21:03:52.701Z,55.42
2023-04-14T21:06:20.000Z,54.03
2023-04-14T21:08:47.342Z,55.33
2023-04-14T21:11:19.967Z,50.95
2023-04-14T21:15:31.212Z,54.10
2023-04-14T21:16:34.682Z,53.15
2023-04-14T21:19:04.280Z,54.25
2023-04-14T21:21:31.932Z,56.63
2023-04-14T21:24:02.005Z,57.67
2023-04-14T21:26:29.531Z,54.03
2023-04-14T21:28:57.391Z,53.75
2023-04-14T21:31:24.170Z,52.63
2023-04-14T21:33:53.877Z,55.08
2023-04-14T21:36:20.567Z,55.97
2023-04-14T21:38:47.722Z,55.10
2023-04-14T21:41:14.430Z,57.13
2023-04-14T21:43:41.556Z,55.38
2023-04-14T21:46:08.785Z,59.00
2023-04-14T21:48:37.254Z,59.70
2023-04-14T21:51:04.139Z,58.17
2023-04-14T21:53:31.493Z,57.70
2023-04-14T21:56:09.820Z,59.33
2023-04-14T21:58:41.956Z,55.65
2023-04-14T22:01:10.567Z,60.10
2023-04-14T22:03:40.581Z,62.10
2023-04-14T22:06:10.232Z,58.00
2023-04-14T22:08:38.184Z,57.00
2023-04-14T22:11:05.442Z,59.90
2023-04-14T22:13:32.488Z,66.32
2023-04-14T22:15:59.595Z,61.15
2023-04-14T22:18:27.708Z,67.13
2023-04-14T22:20:55.740Z,57.13
2023-04-14T22:23:23.222Z,64.70
2023-04-14T22:25:50.424Z,60.92
2023-04-14T22:28:17.454Z,58.33
2023-04-14T22:30:44.715Z,63.03
2023-04-14T22:33:15.264Z,59.47
2023-04-14T22:35:42.125Z,59.15
2023-04-14T22:38:09.067Z,62.03
2023-04-14T22:40:36.278Z,57.70
2023-04-14T22:43:09.178Z,57.22
2023-04-14T22:45:37.099Z,58.95
2023-04-14T22:48:10.234Z,63.90
2023-04-14T22:50:37.427Z,63.85
2023-04-14T22:53:05.689Z,62.15
2023-04-14T22:55:32.513Z,58.70
2023-04-14T22:57:59.706Z,61.55
2023-04-14T23:00:26.664Z,63.80
2023-04-14T23:02:56.327Z,58.80
2023-04-14T23:05:23.429Z,67.47
2023-04-14T23:07:51.014Z,63.63
2023-04-14T23:10:17.928Z,65.07
2023-04-14T23:12:44.665Z,72.70
2023-04-14T23:15:11.785Z,60.90
2023-04-14T23:17:38.885Z,63.17
2023-04-14T23:20:06.301Z,62.65
2023-04-14T23:22:33.117Z,60.17
2023-04-14T23:25:00.616Z,63.05
2023-04-14T23:27:28.086Z,61.58
2023-04-14T23:29:56.836Z,63.75
2023-04-14T23:32:23.619Z,67.32
2023-04-14T23:34:50.730Z,66.43
2023-04-14T23:37:18.778Z,58.53
2023-04-14T23:40:12.317Z,62.15
2023-04-14T23:42:39.946Z,51.42
2023-04-14T23:45:29.844Z,48.67
2023-04-14T23:47:59.778Z,47.95
2023-04-14T23:51:00.991Z,44.47
2023-04-14T23:53:13.420Z,39.00
2023-04-14T23:55:40.239Z,34.42
2023-04-14T23:58:07.049Z,33.15
